createdAt,value
2018-07-14T00:01:09.939Z,20.66
2018-07-14T00:06:02.526Z,20.59
2018-07-14T00:10:55.090Z,20.52
2018-07-14T00:15:47.783Z,20.46
2018-07-14T00:20:40.358Z,20.40
2018-07-14T00:25:38.646Z,20.37
2018-07-14T00:30:31.231Z,20.35
2018-07-14T00:35:23.821Z,20.34
2018-07-14T00:40:16.516Z,20.33
2018-07-14T00:45:09.111Z,20.31
2018-07-14T00:50:01.660Z,20.28
2018-07-14T00:54:54.258Z,20.23
2018-07-14T00:59:46.812Z,20.18
2018-07-14T01:04:39.382Z,20.13
2018-07-14T01:09:31.987Z,20.09
2018-07-14T01:14:24.532Z,20.01
2018-07-14T01:19:17.134Z,19.95
2018-07-14T01:24:09.632Z,19.92
2018-07-14T01:29:02.367Z,19.86
2018-07-14T01:33:54.946Z,19.82
2018-07-14T01:38:47.466Z,19.80
2018-07-14T01:43:40.032Z,19.74
2018-07-14T01:48:32.604Z,19.69
2018-07-14T01:53:25.190Z,19.62
2018-07-14T01:58:17.763Z,19.55
2018-07-14T02:03:10.342Z,19.53
2018-07-14T02:08:02.940Z,19.52
2018-07-14T02:12:55.499Z,19.46
2018-07-14T02:17:48.072Z,19.43
2018-07-14T02:22:40.681Z,19.41
2018-07-14T02:27:33.303Z,19.37
2018-07-14T02:32:25.858Z,19.30
2018-07-14T02:37:18.480Z,19.25
2018-07-14T02:42:11.113Z,19.16
2018-07-14T02:47:03.904Z,19.12
2018-07-14T02:51:56.481Z,19.10
2018-07-14T02:56:49.098Z,19.07
2018-07-14T03:01:41.768Z,19.03
2018-07-14T03:06:34.350Z,19.01
2018-07-14T03:11:26.980Z,18.96
2018-07-14T03:16:19.560Z,18.94
2018-07-14T03:21:12.243Z,18.89
2018-07-14T03:26:04.814Z,18.83
2018-07-14T03:30:57.419Z,18.75
2018-07-14T03:35:50.004Z,18.66
2018-07-14T03:40:42.614Z,18.60
2018-07-14T03:45:35.207Z,18.56
2018-07-14T03:50:27.954Z,18.47
2018-07-14T03:55:20.542Z,18.38
2018-07-14T04:00:13.155Z,18.35
2018-07-14T04:05:05.735Z,18.30
2018-07-14T04:09:58.367Z,18.26
2018-07-14T04:14:50.991Z,18.24
2018-07-14T04:19:43.534Z,18.20
2018-07-14T04:24:36.168Z,18.17
2018-07-14T04:29:28.930Z,18.16
2018-07-14T04:34:21.514Z,18.12
2018-07-14T04:39:14.296Z,18.10
2018-07-14T04:44:06.860Z,18.05
2018-07-14T04:48:59.401Z,18.04
2018-07-14T04:53:51.997Z,18.06
2018-07-14T04:58:44.599Z,18.05
2018-07-14T05:03:37.202Z,18.03
2018-07-14T05:08:29.826Z,18.07
2018-07-14T05:13:22.394Z,18.10
2018-07-14T05:18:14.996Z,18.12
2018-07-14T05:23:07.795Z,18.16
2018-07-14T05:28:00.417Z,18.20
2018-07-14T05:32:53.074Z,18.21
2018-07-14T05:37:45.659Z,18.23
2018-07-14T05:42:38.314Z,18.27
2018-07-14T05:47:31.014Z,18.30
2018-07-14T05:52:23.647Z,18.36
2018-07-14T05:57:16.275Z,18.45
2018-07-14T06:02:08.871Z,18.50
2018-07-14T06:07:01.497Z,18.56
2018-07-14T06:11:54.090Z,18.61
2018-07-14T06:16:46.687Z,18.71
2018-07-14T06:21:39.334Z,18.84
2018-07-14T06:26:31.948Z,18.93
2018-07-14T06:31:24.591Z,18.94
2018-07-14T06:36:17.258Z,18.96
2018-07-14T06:41:09.914Z,19.03
2018-07-14T06:46:02.679Z,19.10
2018-07-14T06:50:55.296Z,19.21
2018-07-14T06:55:47.921Z,19.30
2018-07-14T07:00:40.554Z,19.42
2018-07-14T07:05:33.168Z,19.43
2018-07-14T07:10:25.742Z,19.43
2018-07-14T07:15:18.357Z,19.53
2018-07-14T07:20:11.241Z,19.66
2018-07-14T07:25:03.920Z,19.53
2018-07-14T07:29:56.522Z,19.77
2018-07-14T07:34:49.161Z,20.26
2018-07-14T07:39:41.871Z,21.55
2018-07-14T07:44:34.516Z,22.93
2018-07-14T07:49:27.165Z,23.72
2018-07-14T07:54:19.748Z,24.35
2018-07-14T07:59:12.296Z,25.09
2018-07-14T08:04:05.046Z,25.52
2018-07-14T08:08:57.622Z,25.74
2018-07-14T08:13:50.163Z,25.88
2018-07-14T08:18:42.958Z,25.90
2018-07-14T08:23:35.555Z,25.96
2018-07-14T08:28:28.158Z,26.01
2018-07-14T08:33:21.739Z,25.94
2018-07-14T08:38:14.413Z,25.62
2018-07-14T08:43:07.041Z,25.36
2018-07-14T08:47:59.656Z,25.21
2018-07-14T08:52:52.259Z,25.04
2018-07-14T08:57:44.874Z,24.81
2018-07-14T09:02:37.729Z,24.59
2018-07-14T09:07:30.309Z,24.48
2018-07-14T09:12:23.262Z,24.35
2018-07-14T09:17:15.966Z,24.27
2018-07-14T09:22:08.559Z,24.17
2018-07-14T09:27:01.186Z,24.18
2018-07-14T09:31:53.791Z,24.20
2018-07-14T09:36:46.391Z,24.13
2018-07-14T09:41:39.083Z,24.08
2018-07-14T09:46:31.652Z,24.11
2018-07-14T09:51:24.286Z,24.13
2018-07-14T09:56:16.977Z,24.10
2018-07-14T10:01:10.487Z,24.16
2018-07-14T10:06:03.227Z,24.24
2018-07-14T10:10:55.902Z,24.30
2018-07-14T10:15:48.543Z,24.29
2018-07-14T10:20:41.315Z,24.51
2018-07-14T10:25:33.970Z,24.69
2018-07-14T10:30:26.621Z,24.93
2018-07-14T10:35:19.289Z,25.06
2018-07-14T10:40:11.973Z,25.12
2018-07-14T10:45:04.750Z,25.05
2018-07-14T10:49:57.369Z,24.85
2018-07-14T10:54:50.027Z,24.85
2018-07-14T10:59:42.626Z,25.17
2018-07-14T11:04:35.338Z,25.29
2018-07-14T11:09:28.144Z,25.40
2018-07-14T11:14:20.739Z,25.58
2018-07-14T11:19:13.438Z,25.74
2018-07-14T11:24:06.102Z,26.00
2018-07-14T11:28:58.665Z,26.17
2018-07-14T11:33:51.346Z,26.30
2018-07-14T11:38:44.071Z,26.41
2018-07-14T11:43:36.754Z,26.40
2018-07-14T11:48:29.379Z,26.54
2018-07-14T11:53:21.931Z,26.73
2018-07-14T11:58:14.542Z,26.92
2018-07-14T12:03:07.203Z,27.00
2018-07-14T12:07:59.873Z,27.12
2018-07-14T12:12:52.549Z,27.16
2018-07-14T12:17:45.158Z,27.31
2018-07-14T12:22:37.830Z,27.33
2018-07-14T12:27:30.484Z,27.47
2018-07-14T12:32:23.074Z,27.60
2018-07-14T12:37:15.752Z,27.74
2018-07-14T12:42:08.394Z,27.84
2018-07-14T12:47:01.115Z,27.83
2018-07-14T12:51:53.690Z,27.84
2018-07-14T12:56:46.261Z,27.95
2018-07-14T13:01:39.143Z,28.06
2018-07-14T13:06:31.772Z,28.09
2018-07-14T13:11:24.486Z,28.09
2018-07-14T13:16:17.805Z,28.18
2018-07-14T13:21:10.544Z,28.27
2018-07-14T13:26:03.164Z,28.32
2018-07-14T13:30:55.758Z,28.33
2018-07-14T13:35:48.396Z,28.39
2018-07-14T13:40:40.935Z,28.39
2018-07-14T13:45:33.547Z,28.44
2018-07-14T13:50:26.234Z,28.47
2018-07-14T13:55:18.890Z,28.46
2018-07-14T14:00:11.442Z,28.49
2018-07-14T14:05:04.229Z,28.51
2018-07-14T14:09:56.778Z,28.44
2018-07-14T14:14:49.383Z,28.47
2018-07-14T14:19:42.023Z,28.49
2018-07-14T14:24:34.675Z,28.52
2018-07-14T14:29:27.371Z,28.51
2018-07-14T14:34:19.889Z,28.48
2018-07-14T14:39:12.462Z,28.48
2018-07-14T14:44:17.720Z,28.45
2018-07-14T14:49:10.277Z,28.40
2018-07-14T14:54:03.017Z,28.40
2018-07-14T14:58:55.622Z,28.37
2018-07-14T15:03:48.221Z,28.20
2018-07-14T15:08:40.851Z,28.09
2018-07-14T15:13:33.492Z,28.03
2018-07-14T15:18:26.068Z,28.01
2018-07-14T15:23:18.682Z,28.05
2018-07-14T15:28:11.402Z,28.02
2018-07-14T15:33:04.228Z,27.95
2018-07-14T15:37:56.562Z,27.94
2018-07-14T15:42:49.239Z,27.88
2018-07-14T15:47:41.913Z,27.84
2018-07-14T15:52:34.507Z,27.78
2018-07-14T15:57:27.102Z,27.74
2018-07-14T16:02:19.707Z,27.71
2018-07-14T16:07:12.297Z,27.66
2018-07-14T16:12:05.573Z,27.62
2018-07-14T16:16:58.167Z,27.51
2018-07-14T16:21:50.799Z,27.42
2018-07-14T16:26:43.463Z,27.35
2018-07-14T16:31:36.101Z,27.26
2018-07-14T16:36:28.763Z,27.15
2018-07-14T16:41:21.394Z,27.06
2018-07-14T16:46:14.084Z,27.02
2018-07-14T16:51:07.235Z,26.95
2018-07-14T16:56:00.150Z,26.87
2018-07-14T17:00:52.747Z,26.77
2018-07-14T17:05:45.334Z,26.69
2018-07-14T17:10:38.016Z,26.63
2018-07-14T17:15:30.590Z,26.52
2018-07-14T17:20:23.359Z,26.46
2018-07-14T17:25:15.951Z,26.41
2018-07-14T17:30:08.629Z,26.36
2018-07-14T17:35:01.172Z,26.32
2018-07-14T17:39:53.829Z,26.24
2018-07-14T17:44:46.389Z,26.16
2018-07-14T17:49:38.940Z,26.06
2018-07-14T17:54:31.605Z,26.00
2018-07-14T17:59:24.186Z,25.96
2018-07-14T18:04:16.762Z,25.89
2018-07-14T18:09:10.241Z,25.81
2018-07-14T18:14:02.861Z,25.71
2018-07-14T18:18:55.468Z,25.63
2018-07-14T18:23:48.079Z,25.57
2018-07-14T18:28:40.722Z,25.51
2018-07-14T18:33:33.285Z,25.44
2018-07-14T18:38:25.850Z,25.34
2018-07-14T18:43:18.471Z,25.26
2018-07-14T18:48:11.878Z,25.15
2018-07-14T18:53:04.921Z,25.03
2018-07-14T18:57:57.510Z,24.90
2018-07-14T19:02:50.144Z,24.79
2018-07-14T19:07:42.726Z,24.68
2018-07-14T19:12:35.458Z,24.57
2018-07-14T19:17:28.215Z,24.48
2018-07-14T19:22:20.827Z,24.36
2018-07-14T19:27:13.418Z,24.26
2018-07-14T19:32:06.379Z,24.13
2018-07-14T19:36:59.043Z,24.02
2018-07-14T19:41:51.782Z,23.89
2018-07-14T19:46:44.322Z,23.76
2018-07-14T19:51:37.004Z,23.64
2018-07-14T19:56:29.579Z,23.57
2018-07-14T20:01:22.184Z,23.46
2018-07-14T20:06:14.767Z,23.37
2018-07-14T20:11:07.530Z,23.23
2018-07-14T20:16:00.057Z,23.09
2018-07-14T20:20:53.559Z,22.97
2018-07-14T20:25:46.118Z,22.80
2018-07-14T20:30:38.678Z,22.74
2018-07-14T20:35:31.233Z,22.68
2018-07-14T20:40:23.836Z,22.58
2018-07-14T20:45:16.367Z,22.51
2018-07-14T20:50:09.186Z,22.40
2018-07-14T20:55:02.044Z,22.33
2018-07-14T20:59:54.679Z,22.26
2018-07-14T21:04:47.255Z,22.16
2018-07-14T21:09:39.871Z,22.02
2018-07-14T21:14:32.634Z,21.94
2018-07-14T21:19:25.212Z,21.84
2018-07-14T21:24:17.832Z,21.73
2018-07-14T21:29:10.508Z,21.62
2018-07-14T21:34:03.104Z,21.50
2018-07-14T21:38:55.685Z,21.35
2018-07-14T21:43:48.342Z,21.19
2018-07-14T21:48:40.971Z,21.03
2018-07-14T21:53:33.531Z,21.00
2018-07-14T21:58:26.111Z,20.97
2018-07-14T22:03:18.761Z,20.88
2018-07-14T22:08:11.416Z,20.83
2018-07-14T22:13:04.955Z,20.76
2018-07-14T22:17:57.498Z,20.75
2018-07-14T22:22:50.490Z,20.62
2018-07-14T22:27:43.143Z,20.54
2018-07-14T22:32:35.738Z,20.42
2018-07-14T22:37:28.293Z,20.09
2018-07-14T22:42:20.930Z,19.91
2018-07-14T22:47:13.578Z,19.90
2018-07-14T22:52:06.885Z,19.90
2018-07-14T22:56:59.451Z,19.83
2018-07-14T23:01:52.064Z,19.73
2018-07-14T23:06:44.678Z,19.65
2018-07-14T23:11:37.283Z,19.53
2018-07-14T23:16:29.977Z,19.42
2018-07-14T23:21:22.587Z,19.36
2018-07-14T23:26:15.169Z,19.25
2018-07-14T23:31:07.729Z,19.12
2018-07-14T23:36:00.321Z,18.96
2018-07-14T23:40:52.923Z,18.82
2018-07-14T23:45:45.606Z,18.71
2018-07-14T23:50:38.162Z,18.59
2018-07-14T23:55:30.870Z,18.60
